sensor_id;sensor_type;location;lat;lon;timestamp;P1;durP1;ratioP1;P2;durP2;ratioP2
1467;SDS011;727;48.892;9.544;2023-07-13T00:02:05;3.67;;;3.10;;
1467;SDS011;727;48.892;9.544;2023-07-13T00:04:31;1.93;;;1.70;;
1467;SDS011;727;48.892;9.544;2023-07-13T00:06:58;3.40;;;2.07;;
1467;SDS011;727;48.892;9.544;2023-07-13T00:09:25;2.50;;;2.30;;
1467;SDS011;727;48.892;9.544;2023-07-13T00:11:54;3.73;;;1.90;;
1467;SDS011;727;48.892;9.544;2023-07-13T00:14:22;3.00;;;2.00;;
1467;SDS011;727;48.892;9.544;2023-07-13T00:16:50;4.80;;;2.20;;
1467;SDS011;727;48.892;9.544;2023-07-13T00:19:18;2.87;;;1.90;;
1467;SDS011;727;48.892;9.544;2023-07-13T00:21:45;2.20;;;2.00;;
1467;SDS011;727;48.892;9.544;2023-07-13T00:24:13;3.60;;;2.23;;
1467;SDS011;727;48.892;9.544;2023-07-13T00:26:43;2.30;;;2.10;;
1467;SDS011;727;48.892;9.544;2023-07-13T00:29:10;1.90;;;1.67;;
1467;SDS011;727;48.892;9.544;2023-07-13T00:31:37;3.23;;;1.70;;
1467;SDS011;727;48.892;9.544;2023-07-13T00:34:04;2.87;;;1.97;;
1467;SDS011;727;48.892;9.544;2023-07-13T00:36:32;1.70;;;1.60;;
1467;SDS011;727;48.892;9.544;2023-07-13T00:38:59;2.50;;;1.87;;
1467;SDS011;727;48.892;9.544;2023-07-13T00:41:26;5.90;;;1.83;;
1467;SDS011;727;48.892;9.544;2023-07-13T00:43:53;5.60;;;1.93;;
1467;SDS011;727;48.892;9.544;2023-07-13T00:46:21;8.50;;;2.17;;
1467;SDS011;727;48.892;9.544;2023-07-13T00:48:51;2.03;;;1.90;;
1467;SDS011;727;48.892;9.544;2023-07-13T00:51:27;3.53;;;2.13;;
1467;SDS011;727;48.892;9.544;2023-07-13T00:53:59;3.17;;;2.00;;
1467;SDS011;727;48.892;9.544;2023-07-13T00:56:29;2.23;;;1.60;;
1467;SDS011;727;48.892;9.544;2023-07-13T00:58:57;6.03;;;2.23;;
1467;SDS011;727;48.892;9.544;2023-07-13T01:01:25;2.40;;;1.30;;
1467;SDS011;727;48.892;9.544;2023-07-13T01:03:52;4.30;;;1.50;;
1467;SDS011;727;48.892;9.544;2023-07-13T01:06:19;5.83;;;2.30;;
1467;SDS011;727;48.892;9.544;2023-07-13T01:08:46;3.27;;;1.83;;
1467;SDS011;727;48.892;9.544;2023-07-13T01:11:14;6.27;;;2.20;;
1467;SDS011;727;48.892;9.544;2023-07-13T01:13:46;2.90;;;1.60;;
1467;SDS011;727;48.892;9.544;2023-07-13T01:16:13;1.70;;;1.60;;
1467;SDS011;727;48.892;9.544;2023-07-13T01:18:45;2.43;;;1.90;;
1467;SDS011;727;48.892;9.544;2023-07-13T01:21:13;2.63;;;1.60;;
1467;SDS011;727;48.892;9.544;2023-07-13T01:23:40;2.03;;;1.67;;
1467;SDS011;727;48.892;9.544;2023-07-13T01:26:09;2.23;;;2.03;;
1467;SDS011;727;48.892;9.544;2023-07-13T01:28:36;2.30;;;1.60;;
1467;SDS011;727;48.892;9.544;2023-07-13T01:31:04;2.77;;;2.30;;
1467;SDS011;727;48.892;9.544;2023-07-13T01:33:31;6.80;;;1.90;;
1467;SDS011;727;48.892;9.544;2023-07-13T01:35:59;1.77;;;1.67;;
1467;SDS011;727;48.892;9.544;2023-07-13T01:38:28;2.23;;;2.00;;
1467;SDS011;727;48.892;9.544;2023-07-13T01:40:55;4.63;;;2.20;;
1467;SDS011;727;48.892;9.544;2023-07-13T01:43:22;5.63;;;2.00;;
1467;SDS011;727;48.892;9.544;2023-07-13T01:45:49;4.83;;;2.10;;
1467;SDS011;727;48.892;9.544;2023-07-13T01:48:15;3.47;;;2.20;;
1467;SDS011;727;48.892;9.544;2023-07-13T01:50:42;3.23;;;2.13;;
1467;SDS011;727;48.892;9.544;2023-07-13T01:53:13;1.73;;;1.63;;
1467;SDS011;727;48.892;9.544;2023-07-13T01:55:41;2.40;;;1.90;;
1467;SDS011;727;48.892;9.544;2023-07-13T01:58:08;2.50;;;2.17;;
1467;SDS011;727;48.892;9.544;2023-07-13T02:00:35;3.00;;;2.47;;
1467;SDS011;727;48.892;9.544;2023-07-13T02:03:02;3.27;;;2.17;;
1467;SDS011;727;48.892;9.544;2023-07-13T02:05:29;1.90;;;1.70;;
1467;SDS011;727;48.892;9.544;2023-07-13T02:07:55;4.60;;;2.10;;
1467;SDS011;727;48.892;9.544;2023-07-13T02:10:22;13.67;;;2.43;;
1467;SDS011;727;48.892;9.544;2023-07-13T02:12:50;5.67;;;2.50;;
1467;SDS011;727;48.892;9.544;2023-07-13T02:15:17;2.20;;;2.00;;
1467;SDS011;727;48.892;9.544;2023-07-13T02:17:44;3.47;;;2.50;;
1467;SDS011;727;48.892;9.544;2023-07-13T02:20:11;2.97;;;2.00;;
1467;SDS011;727;48.892;9.544;2023-07-13T02:22:38;3.80;;;2.50;;
1467;SDS011;727;48.892;9.544;2023-07-13T02:25:05;9.67;;;2.33;;
1467;SDS011;727;48.892;9.544;2023-07-13T02:27:32;3.33;;;2.60;;
1467;SDS011;727;48.892;9.544;2023-07-13T02:30:00;3.63;;;2.33;;
1467;SDS011;727;48.892;9.544;2023-07-13T02:32:27;4.50;;;2.13;;
1467;SDS011;727;48.892;9.544;2023-07-13T02:34:54;3.27;;;2.60;;
1467;SDS011;727;48.892;9.544;2023-07-13T02:37:21;6.20;;;2.60;;
1467;SDS011;727;48.892;9.544;2023-07-13T02:39:47;1.90;;;1.80;;
1467;SDS011;727;48.892;9.544;2023-07-13T02:42:14;7.50;;;2.17;;
1467;SDS011;727;48.892;9.544;2023-07-13T02:44:41;3.20;;;2.40;;
1467;SDS011;727;48.892;9.544;2023-07-13T02:47:09;5.83;;;2.10;;
1467;SDS011;727;48.892;9.544;2023-07-13T02:49:36;2.53;;;2.27;;
1467;SDS011;727;48.892;9.544;2023-07-13T02:52:03;2.63;;;2.10;;
1467;SDS011;727;48.892;9.544;2023-07-13T02:54:31;2.90;;;2.60;;
1467;SDS011;727;48.892;9.544;2023-07-13T02:56:57;5.73;;;3.10;;
1467;SDS011;727;48.892;9.544;2023-07-13T02:59:24;7.77;;;2.83;;
1467;SDS011;727;48.892;9.544;2023-07-13T03:01:51;3.23;;;2.67;;
1467;SDS011;727;48.892;9.544;2023-07-13T03:04:20;2.63;;;2.43;;
1467;SDS011;727;48.892;9.544;2023-07-13T03:06:46;3.43;;;2.90;;
1467;SDS011;727;48.892;9.544;2023-07-13T03:09:14;3.60;;;2.63;;
1467;SDS011;727;48.892;9.544;2023-07-13T03:11:40;2.60;;;2.40;;
1467;SDS011;727;48.892;9.544;2023-07-13T03:14:07;3.60;;;2.20;;
1467;SDS011;727;48.892;9.544;2023-07-13T03:16:34;3.20;;;2.43;;
1467;SDS011;727;48.892;9.544;2023-07-13T03:19:01;2.13;;;1.93;;
1467;SDS011;727;48.892;9.544;2023-07-13T03:21:29;4.10;;;2.40;;
1467;SDS011;727;48.892;9.544;2023-07-13T03:23:56;5.90;;;2.50;;
1467;SDS011;727;48.892;9.544;2023-07-13T03:26:23;2.80;;;2.20;;
1467;SDS011;727;48.892;9.544;2023-07-13T03:28:50;4.43;;;2.73;;
1467;SDS011;727;48.892;9.544;2023-07-13T03:31:17;2.60;;;2.40;;
1467;SDS011;727;48.892;9.544;2023-07-13T03:33:46;5.70;;;3.10;;
1467;SDS011;727;48.892;9.544;2023-07-13T03:36:14;2.40;;;2.20;;
1467;SDS011;727;48.892;9.544;2023-07-13T03:38:45;2.90;;;2.60;;
1467;SDS011;727;48.892;9.544;2023-07-13T03:41:13;2.70;;;2.50;;
1467;SDS011;727;48.892;9.544;2023-07-13T03:43:40;2.80;;;2.13;;
1467;SDS011;727;48.892;9.544;2023-07-13T03:46:06;3.90;;;2.50;;
1467;SDS011;727;48.892;9.544;2023-07-13T03:48:33;3.30;;;2.70;;
1467;SDS011;727;48.892;9.544;2023-07-13T03:51:00;4.07;;;3.20;;
1467;SDS011;727;48.892;9.544;2023-07-13T03:53:27;2.40;;;2.20;;
1467;SDS011;727;48.892;9.544;2023-07-13T03:55:55;4.40;;;2.40;;
1467;SDS011;727;48.892;9.544;2023-07-13T03:58:26;3.80;;;2.47;;
1467;SDS011;727;48.892;9.544;2023-07-13T04:00:55;2.93;;;2.20;;
1467;SDS011;727;48.892;9.544;2023-07-13T04:03:22;7.40;;;2.60;;
1467;SDS011;727;48.892;9.544;2023-07-13T04:05:50;6.10;;;2.07;;
1467;SDS011;727;48.892;9.544;2023-07-13T04:08:16;3.50;;;2.13;;
1467;SDS011;727;48.892;9.544;2023-07-13T04:10:43;4.57;;;2.20;;
1467;SDS011;727;48.892;9.544;2023-07-13T04:13:12;3.83;;;2.77;;
1467;SDS011;727;48.892;9.544;2023-07-13T04:15:39;4.70;;;2.20;;
1467;SDS011;727;48.892;9.544;2023-07-13T04:18:06;4.10;;;2.20;;
1467;SDS011;727;48.892;9.544;2023-07-13T04:20:34;3.27;;;3.07;;
1467;SDS011;727;48.892;9.544;2023-07-13T04:23:01;5.73;;;2.93;;
1467;SDS011;727;48.892;9.544;2023-07-13T04:25:27;4.23;;;2.30;;
1467;SDS011;727;48.892;9.544;2023-07-13T04:27:54;2.67;;;2.43;;
1467;SDS011;727;48.892;9.544;2023-07-13T04:30:22;5.13;;;2.90;;
1467;SDS011;727;48.892;9.544;2023-07-13T04:32:50;8.23;;;2.90;;
1467;SDS011;727;48.892;9.544;2023-07-13T04:35:18;5.50;;;3.50;;
1467;SDS011;727;48.892;9.544;2023-07-13T04:37:45;4.13;;;2.43;;
1467;SDS011;727;48.892;9.544;2023-07-13T04:40:15;6.03;;;2.33;;
1467;SDS011;727;48.892;9.544;2023-07-13T04:42:42;3.63;;;2.50;;
1467;SDS011;727;48.892;9.544;2023-07-13T04:45:09;2.47;;;2.00;;
1467;SDS011;727;48.892;9.544;2023-07-13T04:47:37;2.97;;;2.10;;
1467;SDS011;727;48.892;9.544;2023-07-13T04:50:05;2.93;;;2.67;;
1467;SDS011;727;48.892;9.544;2023-07-13T04:52:32;4.27;;;2.00;;
1467;SDS011;727;48.892;9.544;2023-07-13T04:54:58;5.07;;;2.33;;
1467;SDS011;727;48.892;9.544;2023-07-13T04:57:26;4.57;;;2.93;;
1467;SDS011;727;48.892;9.544;2023-07-13T04:59:52;2.57;;;2.10;;
1467;SDS011;727;48.892;9.544;2023-07-13T05:02:20;7.20;;;2.50;;
1467;SDS011;727;48.892;9.544;2023-07-13T05:04:48;3.53;;;2.20;;
1467;SDS011;727;48.892;9.544;2023-07-13T05:07:15;2.33;;;2.13;;
1467;SDS011;727;48.892;9.544;2023-07-13T05:09:42;5.90;;;2.40;;
1467;SDS011;727;48.892;9.544;2023-07-13T05:12:09;2.83;;;2.20;;
1467;SDS011;727;48.892;9.544;2023-07-13T05:14:37;4.67;;;2.20;;
1467;SDS011;727;48.892;9.544;2023-07-13T05:17:04;2.60;;;2.40;;
1467;SDS011;727;48.892;9.544;2023-07-13T05:19:31;2.77;;;2.47;;
1467;SDS011;727;48.892;9.544;2023-07-13T05:21:59;4.00;;;2.60;;
1467;SDS011;727;48.892;9.544;2023-07-13T05:24:29;4.17;;;2.47;;
1467;SDS011;727;48.892;9.544;2023-07-13T05:26:56;3.37;;;2.90;;
1467;SDS011;727;48.892;9.544;2023-07-13T05:29:22;2.93;;;2.73;;
1467;SDS011;727;48.892;9.544;2023-07-13T05:31:49;1.97;;;1.87;;
1467;SDS011;727;48.892;9.544;2023-07-13T05:34:16;3.13;;;2.70;;
1467;SDS011;727;48.892;9.544;2023-07-13T05:36:43;4.10;;;2.50;;
1467;SDS011;727;48.892;9.544;2023-07-13T05:39:12;4.00;;;2.40;;
1467;SDS011;727;48.892;9.544;2023-07-13T05:41:39;2.70;;;2.50;;
1467;SDS011;727;48.892;9.544;2023-07-13T05:44:05;2.83;;;2.60;;
1467;SDS011;727;48.892;9.544;2023-07-13T05:46:32;7.53;;;2.60;;
1467;SDS011;727;48.892;9.544;2023-07-13T05:48:59;3.87;;;2.73;;
1467;SDS011;727;48.892;9.544;2023-07-13T05:51:26;2.80;;;2.60;;
1467;SDS011;727;48.892;9.544;2023-07-13T05:53:53;5.10;;;2.50;;
1467;SDS011;727;48.892;9.544;2023-07-13T05:56:22;2.60;;;2.40;;
1467;SDS011;727;48.892;9.544;2023-07-13T05:58:50;4.80;;;2.30;;
1467;SDS011;727;48.892;9.544;2023-07-13T06:01:17;3.60;;;1.80;;
1467;SDS011;727;48.892;9.544;2023-07-13T06:03:45;3.67;;;2.47;;
1467;SDS011;727;48.892;9.544;2023-07-13T06:06:13;4.07;;;2.13;;
1467;SDS011;727;48.892;9.544;2023-07-13T06:08:42;4.27;;;2.20;;
1467;SDS011;727;48.892;9.544;2023-07-13T06:11:10;3.20;;;2.10;;
1467;SDS011;727;48.892;9.544;2023-07-13T06:13:42;4.53;;;2.60;;
1467;SDS011;727;48.892;9.544;2023-07-13T06:16:09;2.20;;;2.00;;
1467;SDS011;727;48.892;9.544;2023-07-13T06:18:36;2.93;;;2.57;;
1467;SDS011;727;48.892;9.544;2023-07-13T06:21:07;2.60;;;2.40;;
1467;SDS011;727;48.892;9.544;2023-07-13T06:23:34;2.63;;;2.37;;
1467;SDS011;727;48.892;9.544;2023-07-13T06:26:01;3.40;;;2.83;;
1467;SDS011;727;48.892;9.544;2023-07-13T06:28:29;3.40;;;2.10;;
1467;SDS011;727;48.892;9.544;2023-07-13T06:30:58;3.97;;;2.37;;
1467;SDS011;727;48.892;9.544;2023-07-13T06:33:25;5.07;;;2.23;;
1467;SDS011;727;48.892;9.544;2023-07-13T06:35:52;3.17;;;2.10;;
1467;SDS011;727;48.892;9.544;2023-07-13T06:38:19;3.80;;;2.40;;
1467;SDS011;727;48.892;9.544;2023-07-13T06:40:46;4.30;;;2.27;;
1467;SDS011;727;48.892;9.544;2023-07-13T06:43:13;3.37;;;2.20;;
1467;SDS011;727;48.892;9.544;2023-07-13T06:45:41;3.10;;;1.97;;
1467;SDS011;727;48.892;9.544;2023-07-13T06:48:12;4.70;;;2.20;;
1467;SDS011;727;48.892;9.544;2023-07-13T06:50:39;5.00;;;2.20;;
1467;SDS011;727;48.892;9.544;2023-07-13T06:53:07;3.13;;;2.80;;
1467;SDS011;727;48.892;9.544;2023-07-13T06:55:34;3.30;;;2.60;;
1467;SDS011;727;48.892;9.544;2023-07-13T06:58:01;4.50;;;2.47;;
1467;SDS011;727;48.892;9.544;2023-07-13T07:00:27;4.33;;;2.60;;
1467;SDS011;727;48.892;9.544;2023-07-13T07:02:54;4.57;;;3.20;;
1467;SDS011;727;48.892;9.544;2023-07-13T07:05:23;3.93;;;1.70;;
1467;SDS011;727;48.892;9.544;2023-07-13T07:07:50;6.10;;;1.80;;
1467;SDS011;727;48.892;9.544;2023-07-13T07:10:18;2.77;;;1.73;;
1467;SDS011;727;48.892;9.544;2023-07-13T07:12:46;3.70;;;2.20;;
1467;SDS011;727;48.892;9.544;2023-07-13T07:15:13;3.17;;;1.80;;
1467;SDS011;727;48.892;9.544;2023-07-13T07:17:40;3.23;;;2.27;;
1467;SDS011;727;48.892;9.544;2023-07-13T07:20:08;3.00;;;2.20;;
1467;SDS011;727;48.892;9.544;2023-07-13T07:22:37;2.87;;;2.27;;
1467;SDS011;727;48.892;9.544;2023-07-13T07:25:04;5.03;;;1.97;;
1467;SDS011;727;48.892;9.544;2023-07-13T07:27:31;2.57;;;2.00;;
1467;SDS011;727;48.892;9.544;2023-07-13T07:29:59;2.07;;;1.87;;
1467;SDS011;727;48.892;9.544;2023-07-13T07:32:26;3.20;;;1.73;;
1467;SDS011;727;48.892;9.544;2023-07-13T07:34:55;2.63;;;1.53;;
1467;SDS011;727;48.892;9.544;2023-07-13T07:37:23;2.83;;;2.07;;
1467;SDS011;727;48.892;9.544;2023-07-13T07:39:51;3.23;;;1.80;;
1467;SDS011;727;48.892;9.544;2023-07-13T07:42:19;2.20;;;1.63;;
1467;SDS011;727;48.892;9.544;2023-07-13T07:44:46;3.20;;;1.30;;
1467;SDS011;727;48.892;9.544;2023-07-13T07:47:13;3.90;;;1.73;;
1467;SDS011;727;48.892;9.544;2023-07-13T07:49:41;1.90;;;1.57;;
1467;SDS011;727;48.892;9.544;2023-07-13T07:52:11;4.33;;;1.73;;
1467;SDS011;727;48.892;9.544;2023-07-13T07:54:38;5.33;;;1.80;;
1467;SDS011;727;48.892;9.544;2023-07-13T07:57:07;3.77;;;1.90;;
1467;SDS011;727;48.892;9.544;2023-07-13T07:59:34;5.47;;;1.67;;
1467;SDS011;727;48.892;9.544;2023-07-13T08:02:03;3.60;;;1.83;;
1467;SDS011;727;48.892;9.544;2023-07-13T08:04:32;3.10;;;1.47;;
1467;SDS011;727;48.892;9.544;2023-07-13T08:06:59;4.30;;;1.50;;
1467;SDS011;727;48.892;9.544;2023-07-13T08:09:27;1.33;;;1.13;;
1467;SDS011;727;48.892;9.544;2023-07-13T08:11:54;3.90;;;1.30;;
1467;SDS011;727;48.892;9.544;2023-07-13T08:14:34;1.47;;;1.37;;
1467;SDS011;727;48.892;9.544;2023-07-13T08:17:01;1.57;;;1.23;;
1467;SDS011;727;48.892;9.544;2023-07-13T08:19:28;3.60;;;1.50;;
1467;SDS011;727;48.892;9.544;2023-07-13T08:21:55;2.67;;;1.77;;
1467;SDS011;727;48.892;9.544;2023-07-13T08:24:23;3.77;;;1.50;;
1467;SDS011;727;48.892;9.544;2023-07-13T08:26:50;3.43;;;1.37;;
1467;SDS011;727;48.892;9.544;2023-07-13T08:29:17;5.40;;;2.00;;
1467;SDS011;727;48.892;9.544;2023-07-13T08:34:35;5.03;;;1.80;;
1467;SDS011;727;48.892;9.544;2023-07-13T08:37:02;2.03;;;1.30;;
1467;SDS011;727;48.892;9.544;2023-07-13T08:39:30;1.40;;;1.30;;
1467;SDS011;727;48.892;9.544;2023-07-13T08:41:58;3.47;;;1.57;;
1467;SDS011;727;48.892;9.544;2023-07-13T08:44:30;4.00;;;2.20;;
1467;SDS011;727;48.892;9.544;2023-07-13T08:47:07;2.37;;;1.40;;
1467;SDS011;727;48.892;9.544;2023-07-13T08:49:37;3.77;;;1.60;;
1467;SDS011;727;48.892;9.544;2023-07-13T08:52:07;5.23;;;1.87;;
1467;SDS011;727;48.892;9.544;2023-07-13T08:54:41;3.40;;;1.80;;
1467;SDS011;727;48.892;9.544;2023-07-13T08:57:12;7.07;;;1.77;;
1467;SDS011;727;48.892;9.544;2023-07-13T08:59:41;6.40;;;1.60;;
1467;SDS011;727;48.892;9.544;2023-07-13T09:02:19;2.00;;;1.60;;
1467;SDS011;727;48.892;9.544;2023-07-13T09:04:53;1.50;;;1.27;;
1467;SDS011;727;48.892;9.544;2023-07-13T09:07:28;2.60;;;1.47;;
1467;SDS011;727;48.892;9.544;2023-07-13T09:10:04;2.40;;;2.07;;
1467;SDS011;727;48.892;9.544;2023-07-13T09:12:40;4.73;;;1.77;;
1467;SDS011;727;48.892;9.544;2023-07-13T09:15:24;4.90;;;1.80;;
1467;SDS011;727;48.892;9.544;2023-07-13T09:17:58;9.00;;;1.70;;
1467;SDS011;727;48.892;9.544;2023-07-13T09:20:30;2.37;;;1.80;;
1467;SDS011;727;48.892;9.544;2023-07-13T09:23:01;5.97;;;1.93;;
1467;SDS011;727;48.892;9.544;2023-07-13T09:25:32;2.17;;;1.77;;
1467;SDS011;727;48.892;9.544;2023-07-13T09:28:02;3.87;;;1.87;;
1467;SDS011;727;48.892;9.544;2023-07-13T09:30:37;3.23;;;2.27;;
1467;SDS011;727;48.892;9.544;2023-07-13T09:33:14;2.10;;;1.30;;
1467;SDS011;727;48.892;9.544;2023-07-13T09:35:41;2.50;;;1.47;;
1467;SDS011;727;48.892;9.544;2023-07-13T09:38:11;3.37;;;1.60;;
1467;SDS011;727;48.892;9.544;2023-07-13T09:40:44;1.47;;;1.33;;
1467;SDS011;727;48.892;9.544;2023-07-13T09:43:27;2.50;;;1.50;;
1467;SDS011;727;48.892;9.544;2023-07-13T09:45:55;2.60;;;1.50;;
1467;SDS011;727;48.892;9.544;2023-07-13T09:48:23;4.03;;;1.60;;
1467;SDS011;727;48.892;9.544;2023-07-13T09:50:53;6.00;;;1.63;;
1467;SDS011;727;48.892;9.544;2023-07-13T09:53:22;3.10;;;1.70;;
1467;SDS011;727;48.892;9.544;2023-07-13T09:55:50;2.07;;;1.40;;
1467;SDS011;727;48.892;9.544;2023-07-13T09:58:20;4.80;;;1.87;;
1467;SDS011;727;48.892;9.544;2023-07-13T10:00:55;6.50;;;1.73;;
1467;SDS011;727;48.892;9.544;2023-07-13T10:03:26;6.50;;;1.57;;
1467;SDS011;727;48.892;9.544;2023-07-13T10:06:09;2.93;;;1.63;;
1467;SDS011;727;48.892;9.544;2023-07-13T10:08:38;5.10;;;1.50;;
1467;SDS011;727;48.892;9.544;2023-07-13T10:11:09;2.30;;;1.57;;
1467;SDS011;727;48.892;9.544;2023-07-13T10:13:40;2.60;;;1.60;;
1467;SDS011;727;48.892;9.544;2023-07-13T10:16:10;3.63;;;1.80;;
1467;SDS011;727;48.892;9.544;2023-07-13T10:18:43;1.50;;;1.40;;
1467;SDS011;727;48.892;9.544;2023-07-13T10:21:14;4.90;;;1.80;;
1467;SDS011;727;48.892;9.544;2023-07-13T10:23:42;3.93;;;1.33;;
1467;SDS011;727;48.892;9.544;2023-07-13T10:26:13;4.20;;;1.93;;
1467;SDS011;727;48.892;9.544;2023-07-13T10:31:19;2.53;;;1.97;;
1467;SDS011;727;48.892;9.544;2023-07-13T10:33:48;3.17;;;1.70;;
1467;SDS011;727;48.892;9.544;2023-07-13T10:36:17;6.37;;;2.10;;
1467;SDS011;727;48.892;9.544;2023-07-13T10:38:52;2.07;;;1.13;;
1467;SDS011;727;48.892;9.544;2023-07-13T10:41:21;1.93;;;1.60;;
1467;SDS011;727;48.892;9.544;2023-07-13T10:43:52;5.17;;;1.70;;
1467;SDS011;727;48.892;9.544;2023-07-13T10:46:22;2.10;;;1.87;;
1467;SDS011;727;48.892;9.544;2023-07-13T10:48:53;1.73;;;1.50;;
1467;SDS011;727;48.892;9.544;2023-07-13T10:51:24;1.60;;;1.50;;
1467;SDS011;727;48.892;9.544;2023-07-13T10:54:10;2.50;;;1.40;;
1467;SDS011;727;48.892;9.544;2023-07-13T10:56:40;1.73;;;1.40;;
1467;SDS011;727;48.892;9.544;2023-07-13T10:59:10;2.93;;;1.30;;
1467;SDS011;727;48.892;9.544;2023-07-13T11:01:40;3.03;;;1.63;;
1467;SDS011;727;48.892;9.544;2023-07-13T11:04:20;1.70;;;1.27;;
1467;SDS011;727;48.892;9.544;2023-07-13T11:06:49;2.87;;;1.33;;
1467;SDS011;727;48.892;9.544;2023-07-13T11:09:32;3.37;;;2.23;;
1467;SDS011;727;48.892;9.544;2023-07-13T11:12:02;1.33;;;1.20;;
1467;SDS011;727;48.892;9.544;2023-07-13T11:14:34;3.00;;;1.60;;
1467;SDS011;727;48.892;9.544;2023-07-13T11:20:19;1.93;;;1.83;;
1467;SDS011;727;48.892;9.544;2023-07-13T11:22:49;2.27;;;1.80;;
1467;SDS011;727;48.892;9.544;2023-07-13T11:25:21;4.13;;;1.30;;
1467;SDS011;727;48.892;9.544;2023-07-13T11:28:04;3.43;;;1.60;;
1467;SDS011;727;48.892;9.544;2023-07-13T11:30:35;1.67;;;1.47;;
1467;SDS011;727;48.892;9.544;2023-07-13T11:33:13;5.40;;;2.07;;
1467;SDS011;727;48.892;9.544;2023-07-13T11:35:53;1.73;;;1.20;;
1467;SDS011;727;48.892;9.544;2023-07-13T11:38:28;2.23;;;1.50;;
1467;SDS011;727;48.892;9.544;2023-07-13T11:41:00;2.40;;;1.70;;
1467;SDS011;727;48.892;9.544;2023-07-13T11:43:30;6.50;;;1.97;;
1467;SDS011;727;48.892;9.544;2023-07-13T11:45:59;3.23;;;1.57;;
1467;SDS011;727;48.892;9.544;2023-07-13T11:48:39;4.17;;;1.50;;
1467;SDS011;727;48.892;9.544;2023-07-13T11:51:09;3.57;;;1.30;;
1467;SDS011;727;48.892;9.544;2023-07-13T11:53:45;3.57;;;1.97;;
1467;SDS011;727;48.892;9.544;2023-07-13T11:56:15;2.30;;;1.43;;
1467;SDS011;727;48.892;9.544;2023-07-13T11:58:43;3.20;;;1.87;;
1467;SDS011;727;48.892;9.544;2023-07-13T12:01:15;2.03;;;1.40;;
1467;SDS011;727;48.892;9.544;2023-07-13T12:03:45;3.13;;;1.60;;
1467;SDS011;727;48.892;9.544;2023-07-13T12:06:21;1.90;;;1.53;;
1467;SDS011;727;48.892;9.544;2023-07-13T12:08:55;4.37;;;1.70;;
1467;SDS011;727;48.892;9.544;2023-07-13T12:11:23;2.87;;;1.93;;
1467;SDS011;727;48.892;9.544;2023-07-13T12:13:51;5.43;;;2.27;;
1467;SDS011;727;48.892;9.544;2023-07-13T12:16:21;3.27;;;1.43;;
1467;SDS011;727;48.892;9.544;2023-07-13T12:18:53;2.23;;;1.50;;
1467;SDS011;727;48.892;9.544;2023-07-13T12:21:24;2.60;;;1.20;;
1467;SDS011;727;48.892;9.544;2023-07-13T12:23:57;1.47;;;1.37;;
1467;SDS011;727;48.892;9.544;2023-07-13T12:26:24;4.93;;;1.47;;
1467;SDS011;727;48.892;9.544;2023-07-13T12:28:52;4.93;;;1.87;;
1467;SDS011;727;48.892;9.544;2023-07-13T12:31:26;5.50;;;1.93;;
1467;SDS011;727;48.892;9.544;2023-07-13T12:34:01;3.43;;;1.57;;
1467;SDS011;727;48.892;9.544;2023-07-13T12:36:35;2.20;;;1.50;;
1467;SDS011;727;48.892;9.544;2023-07-13T12:39:06;5.03;;;1.87;;
1467;SDS011;727;48.892;9.544;2023-07-13T12:41:39;1.87;;;1.73;;
1467;SDS011;727;48.892;9.544;2023-07-13T12:44:09;3.43;;;2.00;;
1467;SDS011;727;48.892;9.544;2023-07-13T12:46:38;3.30;;;1.50;;
1467;SDS011;727;48.892;9.544;2023-07-13T12:49:05;4.00;;;1.40;;
1467;SDS011;727;48.892;9.544;2023-07-13T12:51:35;7.60;;;1.53;;
1467;SDS011;727;48.892;9.544;2023-07-13T12:54:12;7.80;;;2.03;;
1467;SDS011;727;48.892;9.544;2023-07-13T12:56:42;5.37;;;1.90;;
1467;SDS011;727;48.892;9.544;2023-07-13T12:59:15;1.73;;;1.63;;
1467;SDS011;727;48.892;9.544;2023-07-13T13:01:45;3.80;;;1.57;;
1467;SDS011;727;48.892;9.544;2023-07-13T13:04:14;4.13;;;2.43;;
1467;SDS011;727;48.892;9.544;2023-07-13T13:06:48;5.10;;;1.80;;
1467;SDS011;727;48.892;9.544;2023-07-13T13:09:16;6.97;;;2.30;;
1467;SDS011;727;48.892;9.544;2023-07-13T13:11:45;4.27;;;2.43;;
1467;SDS011;727;48.892;9.544;2023-07-13T13:14:12;4.20;;;1.60;;
1467;SDS011;727;48.892;9.544;2023-07-13T13:16:46;6.40;;;1.73;;
1467;SDS011;727;48.892;9.544;2023-07-13T13:19:16;1.83;;;1.30;;
1467;SDS011;727;48.892;9.544;2023-07-13T13:21:45;5.87;;;1.93;;
1467;SDS011;727;48.892;9.544;2023-07-13T13:24:14;4.37;;;1.90;;
1467;SDS011;727;48.892;9.544;2023-07-13T13:26:42;6.00;;;2.43;;
1467;SDS011;727;48.892;9.544;2023-07-13T13:29:11;2.67;;;1.83;;
1467;SDS011;727;48.892;9.544;2023-07-13T13:31:40;2.87;;;1.63;;
1467;SDS011;727;48.892;9.544;2023-07-13T13:34:08;2.93;;;1.67;;
1467;SDS011;727;48.892;9.544;2023-07-13T13:36:36;2.80;;;1.63;;
1467;SDS011;727;48.892;9.544;2023-07-13T13:39:05;4.73;;;1.80;;
1467;SDS011;727;48.892;9.544;2023-07-13T13:41:46;2.40;;;1.60;;
1467;SDS011;727;48.892;9.544;2023-07-13T13:44:14;2.30;;;1.90;;
1467;SDS011;727;48.892;9.544;2023-07-13T13:46:42;3.67;;;1.77;;
1467;SDS011;727;48.892;9.544;2023-07-13T13:49:12;3.23;;;1.63;;
1467;SDS011;727;48.892;9.544;2023-07-13T13:51:48;3.20;;;1.27;;
1467;SDS011;727;48.892;9.544;2023-07-13T13:54:18;3.17;;;1.90;;
1467;SDS011;727;48.892;9.544;2023-07-13T13:56:47;4.87;;;1.57;;
1467;SDS011;727;48.892;9.544;2023-07-13T13:59:16;2.80;;;1.60;;
1467;SDS011;727;48.892;9.544;2023-07-13T14:01:44;3.00;;;1.30;;
1467;SDS011;727;48.892;9.544;2023-07-13T14:04:13;2.20;;;1.47;;
1467;SDS011;727;48.892;9.544;2023-07-13T14:06:42;3.17;;;2.00;;
1467;SDS011;727;48.892;9.544;2023-07-13T14:09:10;2.90;;;2.27;;
1467;SDS011;727;48.892;9.544;2023-07-13T14:11:40;2.30;;;1.80;;
1467;SDS011;727;48.892;9.544;2023-07-13T14:14:09;1.70;;;1.60;;
1467;SDS011;727;48.892;9.544;2023-07-13T14:16:40;1.70;;;1.60;;
1467;SDS011;727;48.892;9.544;2023-07-13T14:19:08;2.47;;;1.30;;
1467;SDS011;727;48.892;9.544;2023-07-13T14:21:39;3.83;;;1.90;;
1467;SDS011;727;48.892;9.544;2023-07-13T14:24:06;2.50;;;1.80;;
1467;SDS011;727;48.892;9.544;2023-07-13T14:26:36;1.57;;;1.47;;
1467;SDS011;727;48.892;9.544;2023-07-13T14:29:10;2.63;;;1.70;;
1467;SDS011;727;48.892;9.544;2023-07-13T14:31:39;2.33;;;1.73;;
1467;SDS011;727;48.892;9.544;2023-07-13T14:34:07;3.60;;;1.70;;
1467;SDS011;727;48.892;9.544;2023-07-13T14:36:36;2.00;;;1.57;;
1467;SDS011;727;48.892;9.544;2023-07-13T14:39:09;5.60;;;1.80;;
1467;SDS011;727;48.892;9.544;2023-07-13T14:41:38;2.10;;;1.90;;
1467;SDS011;727;48.892;9.544;2023-07-13T14:44:09;2.27;;;1.50;;
1467;SDS011;727;48.892;9.544;2023-07-13T14:46:38;6.07;;;2.10;;
1467;SDS011;727;48.892;9.544;2023-07-13T14:49:05;2.40;;;1.50;;
1467;SDS011;727;48.892;9.544;2023-07-13T14:51:38;2.43;;;1.60;;
1467;SDS011;727;48.892;9.544;2023-07-13T14:54:05;2.13;;;1.70;;
1467;SDS011;727;48.892;9.544;2023-07-13T14:56:34;2.67;;;1.50;;
1467;SDS011;727;48.892;9.544;2023-07-13T14:59:01;2.90;;;1.53;;
1467;SDS011;727;48.892;9.544;2023-07-13T15:01:29;4.33;;;1.67;;
1467;SDS011;727;48.892;9.544;2023-07-13T15:03:56;8.43;;;1.63;;
1467;SDS011;727;48.892;9.544;2023-07-13T15:06:24;3.47;;;1.87;;
1467;SDS011;727;48.892;9.544;2023-07-13T15:08:51;2.70;;;1.70;;
1467;SDS011;727;48.892;9.544;2023-07-13T15:11:17;4.93;;;1.50;;
1467;SDS011;727;48.892;9.544;2023-07-13T15:13:44;3.00;;;1.90;;
1467;SDS011;727;48.892;9.544;2023-07-13T15:16:15;3.63;;;1.67;;
1467;SDS011;727;48.892;9.544;2023-07-13T15:18:46;1.70;;;1.37;;
1467;SDS011;727;48.892;9.544;2023-07-13T15:21:14;3.17;;;1.50;;
1467;SDS011;727;48.892;9.544;2023-07-13T15:23:45;1.80;;;1.50;;
1467;SDS011;727;48.892;9.544;2023-07-13T15:26:13;2.63;;;1.57;;
1467;SDS011;727;48.892;9.544;2023-07-13T15:28:40;2.10;;;1.73;;
1467;SDS011;727;48.892;9.544;2023-07-13T15:31:15;3.30;;;1.67;;
1467;SDS011;727;48.892;9.544;2023-07-13T15:33:46;3.70;;;1.30;;
1467;SDS011;727;48.892;9.544;2023-07-13T15:36:14;1.93;;;1.70;;
1467;SDS011;727;48.892;9.544;2023-07-13T15:38:42;4.40;;;1.47;;
1467;SDS011;727;48.892;9.544;2023-07-13T15:41:12;2.77;;;1.63;;
1467;SDS011;727;48.892;9.544;2023-07-13T15:43:43;4.47;;;1.70;;
1467;SDS011;727;48.892;9.544;2023-07-13T15:46:10;2.40;;;1.70;;
1467;SDS011;727;48.892;9.544;2023-07-13T15:48:37;2.90;;;1.87;;
1467;SDS011;727;48.892;9.544;2023-07-13T15:51:05;4.70;;;2.00;;